Winton, California
Current Conditions -  °F | °C
As of 3:45 PM on Monday 20 Oct 2014 (Local Time) from KMER Reporting Station
Clear Clear  
Wind Chill: 81°   Ceiling: Unl
Heat Index: 81°   Visibility: 10mi
Dew Point: 52°   Wind: 14mph
Humidity: 37%   Direction: 340°NNW
Pressure: 29.9"   Gusts: NA
Location:  37.39°N, 120.61°W
Report Text: KMER 202245Z 34012KT 10SM SKC 27/11 A2990
Loading
Personal Weather Stations






























Interactive Weather Map
Tropical Storm Tracking
New forecast layout! Learn more

10-Day Weather Forecast

Advertisements
Track Severe Weather on mobile